Time;durP1;ratioP1;P1;durP2;ratioP2;P2;SDS_P1;SDS_P2;PMS_P1;PMS_P2;Temp;Humidity;BMP_temperature;BMP_pressure;BME280_temperature;BME280_humidity;BME280_pressure;Samples;Min_cycle;Max_cycle;Signal;HPM_P1;HPM_P2
2022/12/12 00:01:53;;;;;;;26.70;14.57;;;2.70;99.90;;;;;;5013442;28;95415;-74
2022/12/12 00:04:20;;;;;;;31.23;15.40;;;2.70;99.90;;;;;;5013802;28;93182;-74
2022/12/12 00:06:47;;;;;;;29.40;14.45;;;2.60;99.90;;;;;;4997892;28;93256;-74
2022/12/12 00:09:14;;;;;;;28.15;16.00;;;2.70;99.90;;;;;;5014655;28;93213;-74
2022/12/12 00:11:41;;;;;;;31.00;15.23;;;2.70;99.90;;;;;;5015171;28;98154;-74
2022/12/12 00:14:08;;;;;;;27.67;13.93;;;2.70;99.90;;;;;;5015359;28;92427;-74
2022/12/12 00:16:35;;;;;;;27.60;14.93;;;2.70;99.90;;;;;;5014277;28;93219;-74
2022/12/12 00:19:02;;;;;;;31.45;16.42;;;2.70;99.90;;;;;;5013969;28;95596;-74
2022/12/12 00:21:29;;;;;;;28.67;15.13;;;2.80;99.90;;;;;;5014195;28;92895;-74
2022/12/12 00:23:57;;;;;;;30.98;15.48;;;2.80;99.90;;;;;;5013985;28;93197;-74
2022/12/12 00:26:30;;;;;;;24.85;14.35;;;2.80;99.90;;;;;;5013658;28;96056;-74
2022/12/12 00:28:58;;;;;;;27.98;14.90;;;2.80;99.90;;;;;;5013731;28;98035;-74
2022/12/12 00:31:25;;;;;;;30.42;16.05;;;2.80;99.90;;;;;;5013669;28;92405;-74
2022/12/12 00:33:53;;;;;;;26.70;14.30;;;2.80;99.90;;;;;;5014319;28;92558;-74
2022/12/12 00:36:24;;;;;;;29.13;14.82;;;2.80;99.90;;;;;;5014825;28;93220;-74
2022/12/12 00:38:52;;;;;;;28.98;15.60;;;2.80;99.90;;;;;;4996975;28;95779;-74
2022/12/12 00:41:19;;;;;;;29.35;14.80;;;2.80;99.90;;;;;;4996701;28;102705;-74
2022/12/12 00:43:47;;;;;;;27.17;14.70;;;2.80;99.90;;;;;;5014332;28;91744;-74
2022/12/12 00:46:20;;;;;;;28.23;14.35;;;2.80;99.90;;;;;;5014944;28;92960;-74
2022/12/12 00:48:48;;;;;;;29.17;14.10;;;2.90;99.90;;;;;;5013401;28;95683;-74
2022/12/12 00:51:18;;;;;;;26.88;14.55;;;2.90;99.90;;;;;;5013937;28;95437;-74
2022/12/12 00:53:45;;;;;;;28.65;14.70;;;2.90;99.90;;;;;;5014917;28;92488;-74
2022/12/12 00:56:19;;;;;;;26.60;15.13;;;2.90;99.90;;;;;;5014619;28;92405;-74
2022/12/12 00:58:47;;;;;;;29.30;14.07;;;2.90;99.90;;;;;;5013620;28;95626;-74
2022/12/12 01:01:18;;;;;;;28.20;14.93;;;2.90;99.90;;;;;;5013197;28;92884;-74
2022/12/12 01:03:45;;;;;;;24.23;13.55;;;2.90;99.90;;;;;;5013316;28;93273;-74
2022/12/12 01:06:13;;;;;;;31.27;15.02;;;2.90;99.90;;;;;;4996771;28;93321;-74
2022/12/12 01:08:40;;;;;;;31.83;15.73;;;2.90;99.90;;;;;;5013786;28;93025;-74
2022/12/12 01:11:09;;;;;;;28.30;14.55;;;2.90;99.90;;;;;;5014790;28;92494;-74
2022/12/12 01:13:36;;;;;;;32.05;15.23;;;2.90;99.90;;;;;;5014336;28;97837;-74
2022/12/12 01:16:04;;;;;;;28.50;14.60;;;2.90;99.90;;;;;;5013446;28;95540;-74
2022/12/12 01:18:32;;;;;;;31.48;15.52;;;2.90;99.90;;;;;;5014524;28;95610;-74
2022/12/12 01:20:59;;;;;;;29.90;15.27;;;2.90;99.90;;;;;;5018388;28;92517;-74
2022/12/12 01:23:28;;;;;;;27.73;14.40;;;2.90;99.90;;;;;;5018150;28;92444;-74
2022/12/12 01:26:04;;;;;;;31.85;17.20;;;2.90;99.90;;;;;;5016724;28;96042;-74
2022/12/12 01:28:31;;;;;;;28.60;14.57;;;2.90;99.90;;;;;;5016205;28;95642;-74
2022/12/12 01:30:58;;;;;;;31.85;15.23;;;2.90;99.90;;;;;;5018134;28;92478;-74
2022/12/12 01:33:25;;;;;;;30.40;16.30;;;2.90;99.90;;;;;;5000252;28;91728;-74
2022/12/12 01:35:52;;;;;;;34.03;15.85;;;2.90;99.90;;;;;;5000179;28;93208;-74
2022/12/12 01:38:19;;;;;;;33.97;16.75;;;2.90;99.90;;;;;;5017666;28;93514;-74
2022/12/12 01:40:46;;;;;;;28.10;14.60;;;2.90;99.90;;;;;;5016858;28;94906;-74
2022/12/12 01:43:16;;;;;;;25.33;14.50;;;2.90;99.90;;;;;;4999488;28;101235;-74
2022/12/12 01:45:58;;;;;;;27.67;15.23;;;2.80;99.90;;;;;;5016502;28;93250;-74
2022/12/12 01:48:34;;;;;;;31.77;14.55;;;2.90;99.90;;;;;;5016317;28;95626;-74
2022/12/12 01:51:05;;;;;;;29.88;14.02;;;2.90;99.90;;;;;;5017959;28;93023;-74
2022/12/12 01:53:33;;;;;;;30.40;14.35;;;2.90;99.90;;;;;;5016140;28;92550;-74
2022/12/12 01:56:04;;;;;;;27.85;16.25;;;2.90;99.90;;;;;;5017733;28;93082;-74
2022/12/12 01:58:32;;;;;;;30.55;14.35;;;2.90;99.90;;;;;;5016432;28;95573;-74
2022/12/12 02:00:59;;;;;;;30.63;15.45;;;2.90;99.90;;;;;;5016111;28;92550;-74
2022/12/12 02:03:27;;;;;;;28.25;14.95;;;2.90;99.90;;;;;;5031865;28;92494;-74
2022/12/12 02:05:57;;;;;;;28.50;15.27;;;2.90;99.90;;;;;;5014877;28;95565;-74
2022/12/12 02:08:25;;;;;;;28.02;14.48;;;2.80;99.90;;;;;;5017155;28;95123;-74
2022/12/12 02:10:52;;;;;;;28.35;15.13;;;2.80;99.90;;;;;;5016201;28;92432;-74
2022/12/12 02:13:22;;;;;;;26.83;14.23;;;2.80;99.90;;;;;;5016050;28;92506;-74
2022/12/12 02:16:09;;;;;;;28.02;14.13;;;2.90;99.90;;;;;;5016229;28;93241;-74
2022/12/12 02:18:51;;;;;;;28.80;13.80;;;2.90;99.90;;;;;;5015615;28;95561;-74
2022/12/12 02:21:50;;;;;;;25.38;14.07;;;2.90;99.90;;;;;;5016209;28;92902;-74
2022/12/12 02:24:29;;;;;;;25.58;13.50;;;2.80;99.90;;;;;;4962536;28;91762;-74
2022/12/12 02:26:56;;;;;;;27.80;13.82;;;2.80;99.90;;;;;;5015676;28;96024;-74
2022/12/12 02:29:32;;;;;;;29.02;14.07;;;2.80;99.90;;;;;;5016981;28;93044;-74
2022/12/12 02:32:06;;;;;;;24.85;13.80;;;2.80;99.90;;;;;;5015302;28;94948;-74
2022/12/12 02:34:45;;;;;;;27.10;14.32;;;2.90;99.90;;;;;;5015667;28;92517;-74
2022/12/12 02:37:31;;;;;;;23.83;13.60;;;2.80;99.90;;;;;;5017111;28;92723;-73
2022/12/12 02:40:14;;;;;;;24.83;13.93;;;2.80;99.90;;;;;;5015499;28;94493;-74
2022/12/12 02:42:44;;;;;;;24.53;13.13;;;2.80;99.90;;;;;;5017074;28;92639;-74
2022/12/12 02:45:34;;;;;;;24.50;14.32;;;2.80;99.90;;;;;;5016837;28;92762;-74
2022/12/12 02:48:09;;;;;;;24.48;13.82;;;2.90;99.90;;;;;;5015930;28;93227;-74
2022/12/12 02:50:38;;;;;;;22.90;12.52;;;2.80;99.90;;;;;;5017083;28;93676;-74
2022/12/12 02:53:05;;;;;;;25.80;13.82;;;2.80;99.90;;;;;;4998771;28;92432;-74
2022/12/12 02:55:32;;;;;;;26.60;14.10;;;2.90;99.90;;;;;;5016498;28;92459;-74
2022/12/12 02:58:04;;;;;;;26.23;14.20;;;2.90;99.90;;;;;;5013667;28;95632;-74
2022/12/12 03:00:39;;;;;;;24.80;14.15;;;2.90;99.90;;;;;;5014744;28;96625;-74
2022/12/12 03:09:07;;;;;;;25.75;14.07;;;2.90;99.90;;;;;;5016731;28;93253;-74
2022/12/12 03:11:48;;;;;;;21.25;13.20;;;2.80;99.90;;;;;;5016490;28;93042;-74
2022/12/12 03:14:21;;;;;;;20.90;13.15;;;2.90;99.90;;;;;;5015615;28;92456;-74
2022/12/12 03:16:52;;;;;;;25.63;13.70;;;2.90;99.90;;;;;;5015658;28;91706;-74
2022/12/12 03:19:27;;;;;;;19.98;11.85;;;2.90;99.90;;;;;;5015338;28;93082;-74
2022/12/12 03:22:05;;;;;;;21.88;12.23;;;2.90;99.90;;;;;;4998352;28;95011;-74
2022/12/12 03:25:10;;;;;;;26.10;13.85;;;2.90;99.90;;;;;;5013735;28;95393;-74
2022/12/12 03:27:46;;;;;;;;;;;2.90;99.90;;;;;;5016794;28;92448;-74
2022/12/12 03:30:16;;;;;;;25.55;13.43;;;2.80;99.90;;;;;;5017942;28;93336;-74
2022/12/12 03:32:54;;;;;;;25.10;13.90;;;2.70;99.90;;;;;;5014620;28;92476;-74
2022/12/12 03:35:28;;;;;;;25.05;14.52;;;2.80;99.90;;;;;;5014984;28;93167;-74
2022/12/12 03:38:07;;;;;;;24.83;13.40;;;2.80;99.90;;;;;;5015100;28;92504;-74
2022/12/12 03:40:44;;;;;;;24.45;13.68;;;2.80;99.90;;;;;;5014935;28;93296;-74
2022/12/12 03:43:16;;;;;;;22.88;13.27;;;2.80;99.90;;;;;;5013914;28;95697;-74
2022/12/12 03:45:58;;;;;;;28.27;13.77;;;2.80;99.90;;;;;;5015878;28;92380;-74
2022/12/12 03:49:11;;;;;;;26.45;15.70;;;2.80;99.90;;;;;;5014631;28;92548;-74
2022/12/12 03:52:00;;;;;;;28.90;14.73;;;2.80;99.90;;;;;;5014550;28;95551;-74
2022/12/12 03:54:40;;;;;;;25.10;13.73;;;2.80;99.90;;;;;;5015553;28;95388;-74
2022/12/12 03:57:25;;;;;;;23.00;13.68;;;2.80;99.90;;;;;;5016373;28;93447;-74
2022/12/12 04:00:05;;;;;;;24.83;14.32;;;2.80;99.90;;;;;;5015665;28;92472;-74
2022/12/12 04:02:52;;;;;;;22.58;13.52;;;2.80;99.90;;;;;;5015635;28;93286;-74
2022/12/12 04:06:25;;;;;;;24.40;14.55;;;2.80;99.90;;;;;;5013958;28;96391;-74
2022/12/12 04:08:32;;;;;;;23.63;13.95;;;2.80;99.90;;;;;;5013923;28;92721;-74
2022/12/12 04:12:57;;;;;;;22.05;12.93;;;2.70;99.90;;;;;;5014525;28;91666;-74
2022/12/12 04:14:31;;;;;;;26.80;14.68;;;2.70;99.90;;;;;;5013135;28;93244;-74
2022/12/12 04:17:03;;;;;;;22.73;12.85;;;2.70;99.90;;;;;;4960311;28;93475;-74
2022/12/12 04:29:05;;;;;;;19.90;11.95;;;2.80;99.90;;;;;;5005416;28;92873;-74
2022/12/12 04:31:39;;;;;;;16.98;10.65;;;2.70;99.90;;;;;;4997341;28;92494;-74
2022/12/12 04:34:11;;;;;;;;;;;2.80;99.90;;;;;;5014384;28;92446;-74
2022/12/12 04:36:40;;;;;;;19.90;11.45;;;2.70;99.90;;;;;;5016924;28;93209;-74
2022/12/12 04:39:10;;;;;;;19.20;12.77;;;2.80;99.90;;;;;;5015213;28;96914;-74
2022/12/12 04:41:39;;;;;;;22.55;13.02;;;2.80;99.90;;;;;;5015120;28;92363;-74
2022/12/12 04:44:08;;;;;;;26.27;13.23;;;2.80;99.90;;;;;;5013822;28;92481;-74
2022/12/12 04:46:37;;;;;;;22.65;12.35;;;2.90;99.90;;;;;;5012027;28;95568;-74
2022/12/12 04:49:16;;;;;;;24.88;13.55;;;2.90;99.90;;;;;;5014831;28;95835;-74
2022/12/12 04:51:48;;;;;;;22.13;12.00;;;2.90;99.90;;;;;;5014955;28;92392;-74
2022/12/12 04:54:48;;;;;;;22.92;11.82;;;2.90;99.90;;;;;;5015027;28;93020;-74
2022/12/12 04:57:26;;;;;;;23.00;11.98;;;3.00;99.90;;;;;;5014737;28;94620;-74
2022/12/12 04:59:53;;;;;;;93.78;33.75;;;2.90;99.90;;;;;;5014548;28;93236;-74
2022/12/12 05:02:29;;;;;;;21.55;11.85;;;2.90;99.90;;;;;;5013711;28;92582;-74
2022/12/12 05:05:17;;;;;;;19.23;11.23;;;3.00;99.90;;;;;;5013543;28;91778;-74
2022/12/12 05:07:51;;;;;;;20.05;11.73;;;3.00;99.90;;;;;;5013573;28;93223;-74
2022/12/12 05:10:18;;;;;;;20.83;12.40;;;3.00;99.90;;;;;;5013607;28;93155;-74
2022/12/12 05:12:51;;;;;;;17.63;10.50;;;2.90;99.90;;;;;;5011860;28;102446;-74
2022/12/12 05:15:19;;;;;;;20.30;11.48;;;3.00;99.90;;;;;;4996862;28;93367;-74
2022/12/12 05:17:49;;;;;;;19.25;10.95;;;2.90;99.90;;;;;;5012897;28;93196;-74
2022/12/12 05:20:17;;;;;;;19.55;11.35;;;2.90;99.90;;;;;;5014657;28;93026;-74
2022/12/12 05:22:44;;;;;;;18.63;10.95;;;2.90;99.90;;;;;;5013513;28;92949;-74
2022/12/12 05:25:11;;;;;;;21.77;12.20;;;2.80;99.90;;;;;;5013530;28;92416;-74
2022/12/12 05:27:38;;;;;;;20.65;12.90;;;2.70;99.90;;;;;;5014516;28;93246;-74
2022/12/12 05:30:06;;;;;;;19.83;12.13;;;2.70;99.90;;;;;;5013398;28;92130;-74
2022/12/12 05:32:33;;;;;;;21.92;12.57;;;2.70;99.90;;;;;;5014422;28;92435;-74
2022/12/12 05:35:00;;;;;;;22.88;12.75;;;2.60;99.90;;;;;;5014289;28;92436;-73
2022/12/12 05:37:27;;;;;;;23.38;13.32;;;2.60;99.90;;;;;;5012885;28;94793;-74
2022/12/12 05:39:54;;;;;;;25.00;13.63;;;2.60;99.90;;;;;;5012676;28;96465;-74
2022/12/12 05:42:20;;;;;;;25.73;14.43;;;2.50;99.90;;;;;;4996339;28;92474;-74
2022/12/12 05:44:47;;;;;;;24.38;14.50;;;2.50;99.90;;;;;;5012959;28;92475;-74
2022/12/12 05:47:14;;;;;;;24.05;13.50;;;2.50;99.90;;;;;;5012585;28;95804;-74
2022/12/12 05:49:41;;;;;;;25.50;13.18;;;2.40;99.90;;;;;;5012708;28;95691;-74
2022/12/12 05:52:08;;;;;;;23.83;12.85;;;2.40;99.90;;;;;;5013111;28;92551;-74
2022/12/12 05:54:35;;;;;;;24.52;13.55;;;2.40;99.90;;;;;;4996599;28;91818;-74
2022/12/12 05:57:03;;;;;;;24.88;14.40;;;2.30;99.90;;;;;;5013795;28;93243;-74
2022/12/12 05:59:30;;;;;;;25.15;16.92;;;2.20;99.90;;;;;;5014052;28;92940;-73
2022/12/12 06:01:58;;;;;;;23.45;13.95;;;2.20;99.90;;;;;;5012727;28;95042;-74
2022/12/12 06:04:25;;;;;;;22.70;12.68;;;2.10;99.90;;;;;;5012361;28;97201;-74
2022/12/12 06:06:52;;;;;;;21.20;13.07;;;2.10;99.90;;;;;;5016058;28;93330;-74
2022/12/12 06:09:19;;;;;;;24.17;13.05;;;2.10;99.90;;;;;;5017342;28;92968;-74
2022/12/12 06:11:45;;;;;;;28.70;13.65;;;2.10;99.90;;;;;;5017447;28;92353;-74
2022/12/12 06:14:12;;;;;;;29.98;15.52;;;2.10;99.90;;;;;;5017421;28;92435;-74
2022/12/12 06:16:39;;;;;;;24.42;13.02;;;2.10;99.90;;;;;;5016003;28;93302;-74
2022/12/12 06:19:07;;;;;;;26.88;14.55;;;2.10;99.90;;;;;;4999450;28;95616;-74
2022/12/12 06:21:34;;;;;;;24.25;14.05;;;2.00;99.90;;;;;;5017191;28;92440;-74
2022/12/12 06:24:01;;;;;;;32.42;19.35;;;2.00;99.90;;;;;;5015553;28;92542;-73
2022/12/12 06:26:27;;;;;;;52.30;29.23;;;2.00;99.90;;;;;;5015893;28;95408;-74
2022/12/12 06:28:55;;;;;;;27.48;15.18;;;2.00;99.90;;;;;;5015472;28;95466;-74
2022/12/12 06:31:22;;;;;;;29.45;16.98;;;2.00;99.90;;;;;;5032458;28;100843;-74
2022/12/12 06:33:49;;;;;;;28.13;14.35;;;2.00;99.90;;;;;;4999221;28;92587;-74
2022/12/12 06:36:25;;;;;;;79.45;39.40;;;2.00;99.90;;;;;;5017175;28;93179;-74
2022/12/12 06:38:57;;;;;;;29.00;16.88;;;2.00;99.90;;;;;;5015405;28;95850;-74
2022/12/12 06:41:27;;;;;;;38.63;27.80;;;2.00;99.90;;;;;;5016991;28;92543;-74
2022/12/12 06:43:55;;;;;;;32.33;22.95;;;2.00;99.90;;;;;;5017254;28;92376;-74
2022/12/12 06:46:27;;;;;;;41.35;27.42;;;1.90;99.90;;;;;;5016705;28;92574;-74
2022/12/12 06:48:55;;;;;;;27.30;15.88;;;2.00;99.90;;;;;;5015197;28;93120;-74
2022/12/12 06:51:28;;;;;;;28.50;15.48;;;2.00;99.90;;;;;;5015784;28;94873;-74
2022/12/12 06:53:55;;;;;;;31.38;15.82;;;2.00;99.90;;;;;;5015717;28;92536;-74
2022/12/12 06:56:24;;;;;;;24.40;14.25;;;2.00;99.90;;;;;;5016629;28;93335;-74
2022/12/12 06:58:52;;;;;;;27.90;14.27;;;2.10;99.90;;;;;;5015241;28;93114;-74
2022/12/12 07:01:22;;;;;;;26.55;14.85;;;2.00;99.90;;;;;;5015641;28;93208;-74
2022/12/12 07:03:50;;;;;;;31.02;14.63;;;2.10;99.90;;;;;;5015107;28;92482;-74
2022/12/12 07:06:19;;;;;;;28.73;14.73;;;2.00;99.90;;;;;;5014990;28;93236;-74
2022/12/12 07:08:47;;;;;;;28.52;14.93;;;2.00;99.90;;;;;;5015441;28;93174;-74
2022/12/12 07:11:17;;;;;;;27.25;14.32;;;2.00;99.90;;;;;;5014765;28;92475;-74
2022/12/12 07:13:45;;;;;;;26.88;15.05;;;2.00;99.90;;;;;;5015043;28;92533;-74
2022/12/12 07:16:12;;;;;;;29.75;16.33;;;2.00;99.90;;;;;;5015008;28;95700;-74
2022/12/12 07:18:39;;;;;;;29.52;15.57;;;2.00;99.90;;;;;;5014899;28;95685;-74
2022/12/12 07:21:09;;;;;;;92.90;42.53;;;1.90;99.90;;;;;;5015902;28;92423;-74
2022/12/12 07:23:36;;;;;;;40.92;21.23;;;1.90;99.90;;;;;;4998490;28;92502;-74
2022/12/12 07:26:05;;;;;;;39.08;25.95;;;1.90;99.90;;;;;;5016040;28;93193;-74
2022/12/12 07:28:32;;;;;;;29.60;16.70;;;1.80;99.90;;;;;;5016189;28;93163;-74
2022/12/12 07:31:08;;;;;;;31.10;16.98;;;1.80;99.90;;;;;;5015949;28;92466;-74
2022/12/12 07:33:35;;;;;;;33.05;19.90;;;1.80;99.90;;;;;;5015273;28;92171;-74
2022/12/12 07:36:10;;;;;;;33.20;16.85;;;1.80;99.90;;;;;;5016107;28;93030;-74
2022/12/12 07:38:37;;;;;;;31.38;16.92;;;1.80;99.90;;;;;;5015931;28;92929;-74
2022/12/12 07:41:10;;;;;;;33.30;16.45;;;1.80;99.90;;;;;;5013440;28;95052;-74
2022/12/12 07:43:39;;;;;;;27.75;16.38;;;1.80;99.90;;;;;;5014728;28;92607;-74
2022/12/12 07:46:13;;;;;;;30.20;16.75;;;1.80;99.90;;;;;;5015695;28;93261;-74
2022/12/12 07:48:40;;;;;;;32.47;15.27;;;1.80;99.90;;;;;;5016235;28;93034;-74
2022/12/12 07:51:07;;;;;;;32.83;16.63;;;1.80;99.90;;;;;;5015388;28;99270;-74
2022/12/12 07:53:34;;;;;;;30.58;16.73;;;1.80;99.90;;;;;;5015855;28;92327;-74
2022/12/12 07:56:07;;;;;;;29.70;16.05;;;1.90;99.90;;;;;;5014498;28;93057;-74
2022/12/12 07:58:34;;;;;;;32.60;16.42;;;1.90;99.90;;;;;;5015832;28;93033;-74
2022/12/12 08:01:08;;;;;;;42.13;23.35;;;1.90;99.90;;;;;;5013943;28;92631;-74
2022/12/12 08:03:41;;;;;;;33.30;19.80;;;1.90;99.90;;;;;;5015587;28;92362;-74
2022/12/12 08:06:08;;;;;;;37.28;23.33;;;1.80;99.90;;;;;;5012991;28;94862;-74
2022/12/12 08:08:35;;;;;;;33.53;18.10;;;1.80;99.90;;;;;;4997574;28;98204;-74
2022/12/12 08:11:07;;;;;;;34.40;18.45;;;1.70;99.90;;;;;;5014115;28;92531;-74
2022/12/12 08:13:35;;;;;;;35.75;18.67;;;1.70;99.90;;;;;;5015653;28;92356;-74
2022/12/12 08:16:04;;;;;;;34.05;16.40;;;1.60;99.90;;;;;;5015332;28;93642;-74
2022/12/12 08:18:31;;;;;;;34.13;17.42;;;1.60;99.90;;;;;;5013989;28;95560;-74
2022/12/12 08:20:58;;;;;;;33.92;18.27;;;1.50;99.90;;;;;;5014206;28;92884;-74
2022/12/12 08:23:25;;;;;;;32.10;16.52;;;1.50;99.90;;;;;;5015601;28;91727;-74
2022/12/12 08:25:53;;;;;;;28.45;15.27;;;1.50;99.90;;;;;;5014107;28;93284;-74
2022/12/12 08:28:20;;;;;;;37.10;17.23;;;1.40;99.90;;;;;;5014642;28;93406;-74
2022/12/12 08:30:49;;;;;;;36.42;19.33;;;1.40;99.90;;;;;;4996294;28;94796;-74
2022/12/12 08:33:17;;;;;;;35.50;19.27;;;1.40;99.90;;;;;;5015164;28;92587;-74
2022/12/12 08:35:43;;;;;;;33.63;17.45;;;1.30;99.90;;;;;;4997124;28;95783;-74
2022/12/12 08:38:10;;;;;;;32.55;17.20;;;1.30;99.90;;;;;;5014893;28;100722;-74
2022/12/12 08:40:38;;;;;;;35.65;19.75;;;1.30;99.90;;;;;;5013845;28;92496;-73
2022/12/12 08:43:05;;;;;;;38.33;19.23;;;1.30;99.90;;;;;;4980914;28;93015;-74
2022/12/12 08:45:32;;;;;;;40.33;22.75;;;1.30;99.90;;;;;;4997100;28;95950;-74
2022/12/12 08:47:59;;;;;;;40.70;20.73;;;1.30;99.90;;;;;;5014000;28;95071;-74
2022/12/12 08:50:26;;;;;;;37.10;18.73;;;1.20;99.90;;;;;;5013738;28;92577;-74
2022/12/12 08:52:53;;;;;;;41.35;21.67;;;1.30;99.90;;;;;;5013872;28;92994;-74
2022/12/12 08:55:20;;;;;;;48.58;26.38;;;1.30;99.90;;;;;;5012056;28;98265;-74
2022/12/12 08:57:47;;;;;;;44.50;22.90;;;1.30;99.90;;;;;;5013650;28;95820;-74
2022/12/12 09:00:14;;;;;;;44.70;25.58;;;1.30;99.90;;;;;;5015020;28;92540;-74
2022/12/12 09:02:42;;;;;;;50.22;29.67;;;1.30;99.90;;;;;;4997045;28;92844;-74
2022/12/12 09:05:09;;;;;;;40.30;21.65;;;1.30;99.90;;;;;;5014392;28;93181;-74
2022/12/12 09:07:37;;;;;;;43.65;21.80;;;1.30;99.90;;;;;;5014740;28;93075;-74
2022/12/12 09:10:05;;;;;;;37.03;20.55;;;1.30;99.90;;;;;;5014775;28;94385;-74
2022/12/12 09:12:32;;;;;;;42.70;21.25;;;1.30;99.90;;;;;;5014914;28;91709;-74
2022/12/12 09:15:06;;;;;;;43.33;20.65;;;1.30;99.90;;;;;;5015262;28;93143;-74
2022/12/12 09:17:33;;;;;;;41.95;19.95;;;1.30;99.90;;;;;;5014368;28;93085;-74
2022/12/12 09:20:00;;;;;;;38.25;19.75;;;1.40;99.90;;;;;;4995725;28;94971;-74
2022/12/12 09:22:27;;;;;;;38.53;19.63;;;1.40;99.90;;;;;;5014836;28;92423;-74
2022/12/12 09:24:54;;;;;;;38.30;19.30;;;1.40;99.90;;;;;;5015007;28;93207;-74
2022/12/12 09:27:21;;;;;;;38.63;18.85;;;1.50;99.90;;;;;;5029616;28;95789;-75
2022/12/12 09:29:47;;;;;;;36.20;19.38;;;1.60;99.90;;;;;;5014712;28;92335;-74
2022/12/12 09:32:14;;;;;;;38.08;20.50;;;1.70;99.90;;;;;;5012704;28;92526;-74
2022/12/12 09:34:44;;;;;;;36.45;19.58;;;1.80;99.90;;;;;;5013030;28;95626;-74
2022/12/12 09:37:11;;;;;;;37.60;18.90;;;1.90;99.90;;;;;;4996861;28;96129;-74
2022/12/12 09:39:38;;;;;;;41.95;20.88;;;2.10;99.90;;;;;;4996464;28;92778;-74
2022/12/12 09:42:26;;;;;;;41.30;21.27;;;2.20;99.90;;;;;;5016852;28;92475;-74
2022/12/12 09:44:59;;;;;;;38.83;20.25;;;2.40;99.90;;;;;;5016645;28;95557;-74
2022/12/12 09:47:29;;;;;;;41.45;19.85;;;2.40;99.90;;;;;;5016199;28;98007;-74
2022/12/12 09:50:03;;;;;;;40.28;20.85;;;2.50;99.90;;;;;;5017336;28;92783;-74
2022/12/12 09:52:34;;;;;;;;;;;2.60;99.90;;;;;;5018406;28;92810;-74
2022/12/12 09:55:24;;;;;;;40.95;21.45;;;2.60;99.90;;;;;;5018158;28;95718;-74
2022/12/12 09:58:01;;;;;;;40.25;21.85;;;2.70;99.90;;;;;;4999639;28;95438;-74
2022/12/12 10:00:32;;;;;;;43.10;23.35;;;2.80;99.90;;;;;;5017656;28;92392;-74
2022/12/12 10:03:14;;;;;;;44.15;22.60;;;2.80;99.90;;;;;;5016726;28;92276;-74
2022/12/12 10:05:56;;;;;;;37.80;19.65;;;2.90;99.90;;;;;;5017370;28;94196;-74
2022/12/12 10:08:48;;;;;;;35.70;19.08;;;3.00;99.90;;;;;;5032889;28;95758;-74
2022/12/12 10:14:37;;;;;;;39.33;22.23;;;3.10;99.90;;;;;;5009581;28;92445;-74
2022/12/12 10:17:19;;;;;;;38.35;19.58;;;3.20;99.90;;;;;;5016397;28;93302;-74
2022/12/12 10:20:05;;;;;;;45.97;20.35;;;3.20;99.90;;;;;;5016254;28;93338;-74
2022/12/12 10:22:50;;;;;;;38.95;23.30;;;3.30;99.90;;;;;;5017173;28;92562;-74
2022/12/12 10:25:22;;;;;;;41.03;21.73;;;3.30;99.90;;;;;;5016434;28;92556;-75
2022/12/12 10:27:53;;;;;;;47.33;25.08;;;3.30;99.90;;;;;;5016124;28;93428;-74
2022/12/12 10:30:20;;;;;;;44.72;23.30;;;3.40;99.90;;;;;;5016216;28;93273;-74
2022/12/12 10:33:00;;;;;;;60.92;32.88;;;3.40;99.90;;;;;;5015717;28;97605;-74
2022/12/12 10:35:38;;;;;;;83.13;47.42;;;3.50;99.90;;;;;;5017114;28;92463;-74
2022/12/12 10:38:19;;;;;;;55.90;31.73;;;3.50;99.90;;;;;;5015870;28;95591;-74
2022/12/12 10:40:58;;;;;;;51.88;32.03;;;3.60;99.90;;;;;;5017013;28;96565;-74
2022/12/12 10:43:37;;;;;;;37.50;20.40;;;3.70;99.90;;;;;;5015823;28;92423;-74
2022/12/12 10:46:49;;;;;;;41.70;21.35;;;3.70;99.90;;;;;;5032452;28;92454;-74
2022/12/12 10:49:19;;;;;;;78.85;45.42;;;3.80;99.90;;;;;;4919215;28;92565;-74
2022/12/12 10:51:48;;;;;;;58.05;29.60;;;3.90;99.90;;;;;;5002188;28;93065;-74
2022/12/12 10:54:21;;;;;;;54.25;25.60;;;3.90;99.90;;;;;;5015746;28;92576;-74
2022/12/12 10:57:07;;;;;;;;;;;3.90;99.90;;;;;;5016549;28;91819;-74
2022/12/12 10:59:53;;;;;;;;;;;3.90;99.90;;;;;;5017377;28;98504;-74
2022/12/12 11:02:36;;;;;;;40.40;21.38;;;3.80;99.90;;;;;;5018483;28;93261;-74
2022/12/12 11:05:39;;;;;;;46.50;22.93;;;3.90;99.90;;;;;;5014753;28;95473;-74
2022/12/12 11:08:23;;;;;;;47.50;25.20;;;3.90;99.90;;;;;;4961593;28;92594;-74
2022/12/12 11:11:20;;;;;;;42.00;21.48;;;4.00;99.90;;;;;;5016672;28;93343;-74
2022/12/12 11:13:51;;;;;;;40.30;22.85;;;3.90;99.90;;;;;;5016465;28;93292;-74
2022/12/12 11:16:23;;;;;;;45.38;26.55;;;4.00;99.90;;;;;;5016558;28;92343;-74
2022/12/12 11:18:58;;;;;;;41.88;20.25;;;4.00;99.90;;;;;;5016392;28;92578;-74
2022/12/12 11:21:27;;;;;;;39.47;20.33;;;4.00;99.90;;;;;;5016171;28;93270;-73
2022/12/12 11:23:56;;;;;;;43.67;24.30;;;3.90;99.90;;;;;;5015148;28;96301;-73
2022/12/12 11:26:26;;;;;;;38.38;22.23;;;4.00;99.90;;;;;;5016315;28;92452;-73
2022/12/12 11:29:01;;;;;;;38.30;19.85;;;4.10;99.90;;;;;;4998358;28;92439;-73
2022/12/12 11:31:31;;;;;;;33.42;20.67;;;4.20;99.90;;;;;;5013604;28;98174;-73
2022/12/12 11:34:01;;;;;;;36.95;21.42;;;4.30;99.90;;;;;;5014573;28;95555;-73
2022/12/12 11:36:47;;;;;;;47.05;34.78;;;4.30;99.90;;;;;;5031631;28;92559;-73
2022/12/12 11:39:27;;;;;;;35.28;21.48;;;4.40;99.90;;;;;;5015186;28;92934;-74
2022/12/12 11:41:59;;;;;;;32.85;19.30;;;4.30;99.90;;;;;;5016004;28;93416;-73
2022/12/12 11:44:34;;;;;;;36.60;18.35;;;4.40;99.90;;;;;;5015993;28;93213;-73
2022/12/12 11:47:34;;;;;;;33.08;20.25;;;4.50;99.90;;;;;;5015439;28;92606;-73
2022/12/12 11:50:16;;;;;;;30.77;17.65;;;4.60;99.90;;;;;;5014877;28;91711;-73
2022/12/12 11:52:43;;;;;;;22.65;13.07;;;4.70;99.90;;;;;;5014656;28;93257;-73
2022/12/12 11:55:25;;;;;;;26.92;17.20;;;4.60;99.90;;;;;;5015700;28;92751;-73
2022/12/12 11:58:05;;;;;;;57.22;37.63;;;4.70;99.90;;;;;;5014660;28;94828;-73
2022/12/12 12:01:00;;;;;;;25.98;14.63;;;4.70;99.90;;;;;;5015361;28;92365;-73
2022/12/12 12:03:53;;;;;;;93.43;57.87;;;4.70;99.90;;;;;;5029389;27;96063;-73
2022/12/12 12:06:51;;;;;;;45.22;27.92;;;4.70;99.90;;;;;;5015720;28;93125;-73
2022/12/12 12:09:48;;;;;;;35.22;20.80;;;4.70;99.90;;;;;;5015704;28;92777;-74
2022/12/12 12:12:23;;;;;;;98.93;50.50;;;4.70;99.90;;;;;;5015670;28;92845;-73
2022/12/12 12:15:25;;;;;;;64.60;36.03;;;4.70;99.90;;;;;;5015469;28;93386;-73
2022/12/12 12:18:01;;;;;;;25.50;16.02;;;4.70;99.90;;;;;;4971686;28;95591;-73
2022/12/12 12:21:03;;;;;;;42.72;25.00;;;4.70;99.90;;;;;;5015756;28;92351;-73
2022/12/12 12:23:40;;;;;;;18.67;12.18;;;4.60;99.90;;;;;;5015805;28;92455;-73
2022/12/12 12:26:24;;;;;;;32.40;22.10;;;4.50;99.90;;;;;;5013044;28;95692;-73
2022/12/12 12:29:25;;;;;;;21.27;15.45;;;4.50;99.90;;;;;;5015291;28;95398;-73
2022/12/12 12:32:15;;;;;;;29.38;22.83;;;4.50;99.90;;;;;;5012686;28;93135;-73
2022/12/12 12:35:09;;;;;;;23.15;19.48;;;4.40;99.90;;;;;;5014024;28;92564;-73
2022/12/12 12:37:51;;;;;;;25.98;22.05;;;4.40;99.90;;;;;;5015332;28;93116;-73
2022/12/12 12:40:37;;;;;;;22.23;14.07;;;4.40;99.90;;;;;;5015105;28;92588;-73
2022/12/12 12:43:23;;;;;;;21.05;16.80;;;4.40;99.90;;;;;;5015438;28;92472;-73
2022/12/12 12:46:12;;;;;;;26.58;17.67;;;4.50;99.90;;;;;;5015829;28;91764;-73
2022/12/12 12:48:44;;;;;;;19.50;12.40;;;4.50;99.90;;;;;;5015163;28;93267;-73
2022/12/12 12:51:19;;;;;;;25.95;21.27;;;4.40;99.90;;;;;;5015176;28;93741;-73
2022/12/12 12:54:01;;;;;;;16.52;10.73;;;4.30;99.90;;;;;;5012345;28;94921;-73
2022/12/12 12:56:30;;;;;;;14.98;9.98;;;4.30;99.90;;;;;;4997335;28;93069;-74
2022/12/12 12:59:00;;;;;;;16.73;10.20;;;4.30;99.90;;;;;;5014524;28;93364;-73
2022/12/12 13:01:38;;;;;;;15.13;9.27;;;4.40;99.90;;;;;;5015047;28;93078;-73
2022/12/12 13:04:41;;;;;;;15.57;9.27;;;4.50;99.90;;;;;;5015237;28;93035;-73
2022/12/12 13:07:34;;;;;;;16.25;10.90;;;4.40;99.90;;;;;;4997159;28;92566;-75
2022/12/12 13:10:17;;;;;;;12.90;8.88;;;4.40;99.90;;;;;;5014896;28;93187;-74
2022/12/12 13:12:54;;;;;;;16.67;10.52;;;4.40;99.90;;;;;;5015588;28;93209;-74
2022/12/12 13:15:30;;;;;;;16.92;10.50;;;4.30;99.90;;;;;;5015157;28;92530;-76
2022/12/12 13:18:03;;;;;;;17.70;11.43;;;4.20;99.90;;;;;;5017139;28;92537;-75
2022/12/12 13:20:39;;;;;;;14.20;8.93;;;4.20;99.90;;;;;;5032576;28;98420;-76
2022/12/12 13:23:45;;;;;;;16.63;10.10;;;4.10;99.90;;;;;;5018686;28;95354;-75
2022/12/12 13:26:48;;;;;;;15.82;9.43;;;4.00;99.90;;;;;;5033789;28;92526;-75
2022/12/12 13:29:38;;;;;;;16.13;10.88;;;3.90;99.90;;;;;;5019244;28;92514;-76
2022/12/12 13:32:14;;;;;;;17.35;11.75;;;3.90;99.90;;;;;;5033392;28;93051;-75